Time;durP1;ratioP1;P1;durP2;ratioP2;P2;SDS_P1;SDS_P2;PMS_P1;PMS_P2;Temp;Humidity;BMP_temperature;BMP_pressure;BME280_temperature;BME280_humidity;BME280_pressure;Samples;Min_cycle;Max_cycle;Signal;HPM_P1;HPM_P2
2021/05/16 00:00:24;;;;;;;1.80;0.65;;;11.20;91.70;;;;;;5075445;28;20044;-74
2021/05/16 00:02:52;;;;;;;2.90;1.08;;;11.30;91.90;;;;;;5071976;28;20090;-74
2021/05/16 00:05:21;;;;;;;3.70;1.45;;;11.30;91.60;;;;;;5046124;28;20412;-74
2021/05/16 00:07:49;;;;;;;2.13;1.08;;;11.30;91.50;;;;;;5072859;28;20432;-74
2021/05/16 00:10:19;;;;;;;4.43;1.33;;;11.40;91.50;;;;;;5073851;28;20060;-74
2021/05/16 00:12:46;;;;;;;2.38;1.15;;;11.40;91.50;;;;;;5073118;28;20040;-74
2021/05/16 00:15:15;;;;;;;2.60;1.02;;;11.40;91.50;;;;;;5041203;28;20123;-75
2021/05/16 00:17:43;;;;;;;2.90;1.17;;;11.40;91.50;;;;;;5075608;28;20400;-75
2021/05/16 00:20:14;;;;;;;2.38;1.10;;;11.50;91.50;;;;;;5065874;28;20051;-75
2021/05/16 00:22:42;;;;;;;2.13;0.95;;;11.50;91.50;;;;;;5075541;28;20435;-75
2021/05/16 00:25:15;;;;;;;2.67;1.20;;;11.50;91.50;;;;;;5075270;28;20075;-75
2021/05/16 00:27:43;;;;;;;2.80;1.30;;;11.50;91.50;;;;;;5074114;28;20048;-75
2021/05/16 00:30:13;;;;;;;3.05;1.42;;;11.50;91.40;;;;;;5074511;28;20115;-74
2021/05/16 00:32:42;;;;;;;3.40;1.50;;;11.50;91.40;;;;;;5075223;28;20044;-75
2021/05/16 00:35:13;;;;;;;4.43;1.70;;;11.60;91.40;;;;;;5054354;28;20447;-74
2021/05/16 00:37:41;;;;;;;4.20;1.30;;;11.60;91.40;;;;;;5069505;28;20040;-75
2021/05/16 00:40:08;;;;;;;5.10;1.90;;;11.60;91.40;;;;;;5074482;28;20036;-75
2021/05/16 00:42:35;;;;;;;3.28;1.38;;;11.50;91.50;;;;;;5072857;28;20048;-75
2021/05/16 00:45:07;;;;;;;3.58;1.35;;;11.60;91.50;;;;;;5073227;28;20105;-75
2021/05/16 00:47:35;;;;;;;2.13;1.20;;;11.60;91.50;;;;;;5072912;28;20040;-74
2021/05/16 00:50:09;;;;;;;3.50;1.70;;;11.60;91.50;;;;;;5073903;28;20037;-74
2021/05/16 00:52:39;;;;;;;3.05;1.20;;;11.60;91.50;;;;;;5069694;28;20097;-74
2021/05/16 00:55:07;;;;;;;4.93;1.70;;;11.60;91.50;;;;;;5073048;28;20503;-74
2021/05/16 00:57:36;;;;;;;3.42;1.27;;;11.60;91.50;;;;;;5072261;28;20044;-74
2021/05/16 01:00:06;;;;;;;4.90;1.10;;;11.60;91.50;;;;;;5074195;28;20043;-74
2021/05/16 01:02:33;;;;;;;5.20;1.40;;;11.70;91.50;;;;;;5053499;28;20044;-74
2021/05/16 01:05:00;;;;;;;2.85;1.45;;;11.70;91.50;;;;;;5039839;28;20040;-74
2021/05/16 01:07:27;;;;;;;4.15;0.82;;;11.60;91.50;;;;;;5074979;28;20059;-74
2021/05/16 01:09:55;;;;;;;4.38;1.60;;;11.60;91.50;;;;;;5072490;28;20395;-74
2021/05/16 01:12:29;;;;;;;3.78;1.13;;;11.70;91.50;;;;;;5074149;28;20037;-75
2021/05/16 01:14:59;;;;;;;4.68;1.30;;;11.60;91.50;;;;;;5073802;28;20496;-74
2021/05/16 01:17:26;;;;;;;5.13;1.45;;;11.60;91.50;;;;;;5056673;28;20048;-76
2021/05/16 01:19:53;;;;;;;2.80;1.20;;;11.60;91.50;;;;;;5054918;28;20040;-74
2021/05/16 01:22:20;;;;;;;3.38;1.20;;;11.60;91.50;;;;;;5073143;28;20064;-75
2021/05/16 01:24:48;;;;;;;2.55;1.00;;;11.60;91.50;;;;;;5053691;28;20099;-74
2021/05/16 01:27:16;;;;;;;3.95;1.23;;;11.60;91.50;;;;;;5051749;28;20047;-74
2021/05/16 01:29:44;;;;;;;5.53;1.48;;;11.60;91.50;;;;;;5049795;28;20048;-72
2021/05/16 01:32:11;;;;;;;3.80;1.27;;;11.50;91.50;;;;;;5070751;28;20139;-73
2021/05/16 01:34:43;;;;;;;4.25;1.48;;;11.40;91.60;;;;;;5054878;28;20461;-73
2021/05/16 01:37:11;;;;;;;3.15;1.25;;;11.40;91.70;;;;;;5051996;28;20082;-73
2021/05/16 01:39:41;;;;;;;5.25;2.03;;;11.40;92.00;;;;;;5064628;28;20048;-73
2021/05/16 01:42:09;;;;;;;5.10;1.60;;;11.30;91.80;;;;;;5072124;28;20747;-74
2021/05/16 01:44:36;;;;;;;2.42;1.02;;;11.30;92.10;;;;;;5052574;28;20817;-73
2021/05/16 01:47:04;;;;;;;3.88;1.70;;;11.30;91.90;;;;;;5073712;28;20041;-74
2021/05/16 01:49:41;;;;;;;4.13;1.02;;;11.30;92.00;;;;;;5071418;28;20127;-73
2021/05/16 01:52:10;;;;;;;3.28;1.02;;;11.30;92.00;;;;;;5071736;28;20036;-73
2021/05/16 01:54:38;;;;;;;4.50;1.55;;;11.40;92.10;;;;;;5073374;28;20059;-74
2021/05/16 01:57:07;;;;;;;4.13;1.75;;;11.30;92.00;;;;;;5071891;28;20036;-75
2021/05/16 01:59:35;;;;;;;6.07;1.63;;;11.30;92.00;;;;;;5038805;28;20573;-74
2021/05/16 02:02:04;;;;;;;6.25;1.63;;;11.30;92.00;;;;;;5055368;28;20047;-75
2021/05/16 02:04:33;;;;;;;6.13;1.75;;;11.30;92.00;;;;;;5071886;28;20054;-75
2021/05/16 02:07:00;;;;;;;5.28;1.75;;;11.30;92.00;;;;;;5071799;28;20454;-75
2021/05/16 02:09:32;;;;;;;3.78;1.30;;;11.20;92.00;;;;;;5052114;28;20044;-75
2021/05/16 02:12:01;;;;;;;4.40;1.48;;;11.20;92.10;;;;;;5062975;28;20048;-74
2021/05/16 02:14:32;;;;;;;3.97;1.27;;;11.20;92.20;;;;;;5071767;28;20067;-74
2021/05/16 02:17:03;;;;;;;4.35;1.15;;;11.20;92.40;;;;;;5070189;28;20098;-74
2021/05/16 02:19:31;;;;;;;6.40;1.45;;;11.20;92.20;;;;;;5071609;28;20091;-74
2021/05/16 02:21:59;;;;;;;8.13;1.42;;;11.30;92.20;;;;;;5051808;28;20397;-74
2021/05/16 02:24:32;;;;;;;;;;;11.30;92.20;;;;;;5064843;28;20068;-74
2021/05/16 02:27:05;;;;;;;6.03;1.17;;;11.30;92.20;;;;;;5054295;28;19921;-74
2021/05/16 02:29:41;;;;;;;5.43;1.52;;;11.20;92.20;;;;;;5040925;28;20045;-74
2021/05/16 02:32:09;;;;;;;4.65;2.10;;;11.30;92.20;;;;;;5045709;28;20412;-74
2021/05/16 02:34:38;;;;;;;3.58;1.63;;;11.30;92.20;;;;;;5071666;28;20044;-74
2021/05/16 02:37:08;;;;;;;6.55;1.80;;;11.30;92.20;;;;;;5055052;28;20504;-74
2021/05/16 02:39:37;;;;;;;6.05;2.08;;;11.30;92.10;;;;;;5071531;28;20036;-74
2021/05/16 02:42:05;;;;;;;7.88;1.83;;;11.30;92.20;;;;;;5072722;28;20400;-74
2021/05/16 02:44:32;;;;;;;7.82;1.88;;;11.30;92.20;;;;;;5055176;28;20412;-74
2021/05/16 02:46:59;;;;;;;6.00;2.40;;;11.30;92.20;;;;;;5036118;28;20045;-74
2021/05/16 02:49:27;;;;;;;3.55;1.38;;;11.30;92.20;;;;;;5054847;28;20051;-74
2021/05/16 02:51:54;;;;;;;5.72;1.70;;;11.20;92.20;;;;;;5054779;28;20063;-75
2021/05/16 02:54:22;;;;;;;5.90;1.83;;;11.20;92.20;;;;;;5038100;28;20045;-75
2021/05/16 02:56:49;;;;;;;4.95;1.20;;;11.20;92.20;;;;;;5067677;28;20085;-76
2021/05/16 02:59:19;;;;;;;3.50;1.08;;;11.30;92.20;;;;;;5071563;28;20037;-75
2021/05/16 03:01:46;;;;;;;6.97;1.58;;;11.30;92.20;;;;;;5040212;28;20098;-74
2021/05/16 03:04:13;;;;;;;2.90;1.55;;;11.30;92.20;;;;;;5058719;28;20113;-75
2021/05/16 03:06:41;;;;;;;3.80;1.17;;;11.30;92.20;;;;;;5075923;28;20040;-75
2021/05/16 03:09:08;;;;;;;5.35;1.52;;;11.30;92.20;;;;;;5076207;28;20036;-74
2021/05/16 03:11:35;;;;;;;8.75;2.47;;;11.30;92.20;;;;;;5042229;28;20040;-74
2021/05/16 03:14:03;;;;;;;5.55;1.92;;;11.30;92.20;;;;;;5055019;28;20103;-74
2021/05/16 03:16:32;;;;;;;7.75;2.38;;;11.30;92.20;;;;;;5076305;28;20059;-74
2021/05/16 03:19:00;;;;;;;4.78;1.42;;;11.30;92.20;;;;;;5075573;28;20040;-76
2021/05/16 03:21:33;;;;;;;5.20;1.55;;;11.30;92.10;;;;;;5058829;28;20555;-75
2021/05/16 03:24:00;;;;;;;6.38;2.28;;;11.20;92.20;;;;;;5055619;28;20468;-74
2021/05/16 03:26:29;;;;;;;4.53;1.63;;;11.30;92.20;;;;;;5050643;28;20059;-74
2021/05/16 03:28:56;;;;;;;3.97;1.00;;;11.30;92.20;;;;;;5055103;28;20404;-75
2021/05/16 03:31:23;;;;;;;4.47;1.40;;;11.30;92.20;;;;;;5057251;28;20095;-75
2021/05/16 03:33:51;;;;;;;4.65;1.70;;;11.30;92.20;;;;;;5071395;28;20040;-75
2021/05/16 03:36:18;;;;;;;9.10;2.15;;;11.30;92.20;;;;;;5054770;28;20049;-76
2021/05/16 03:38:45;;;;;;;7.20;1.05;;;11.30;92.20;;;;;;5072731;28;20503;-75
2021/05/16 03:41:12;;;;;;;3.42;1.17;;;11.40;92.20;;;;;;5057894;28;20044;-75
2021/05/16 03:43:39;;;;;;;3.13;1.13;;;11.40;92.10;;;;;;5075744;28;20041;-76
2021/05/16 03:46:06;;;;;;;6.30;1.40;;;11.40;92.20;;;;;;5074372;28;20036;-75
2021/05/16 03:48:33;;;;;;;7.85;1.02;;;11.40;92.20;;;;;;5074379;28;20044;-75
2021/05/16 03:51:00;;;;;;;4.60;1.58;;;11.40;92.10;;;;;;5069028;28;20102;-76
2021/05/16 03:53:27;;;;;;;4.93;1.42;;;11.40;92.10;;;;;;5067254;28;20075;-75
2021/05/16 03:55:54;;;;;;;5.38;1.90;;;11.40;92.10;;;;;;5040977;28;20043;-76
2021/05/16 03:58:22;;;;;;;8.70;2.20;;;11.30;92.00;;;;;;5057810;28;20041;-74
2021/05/16 04:00:50;;;;;;;8.95;1.60;;;11.30;92.00;;;;;;5057386;28;20090;-75
2021/05/16 04:03:17;;;;;;;6.38;2.22;;;11.30;92.00;;;;;;5074472;28;20040;-75
2021/05/16 04:05:44;;;;;;;5.10;2.53;;;11.30;92.00;;;;;;5073699;28;20036;-74
2021/05/16 04:08:11;;;;;;;7.35;2.13;;;11.30;92.10;;;;;;5057871;28;20052;-75
2021/05/16 04:10:38;;;;;;;5.25;2.60;;;11.30;92.00;;;;;;5074303;28;20040;-75
2021/05/16 04:13:05;;;;;;;6.55;2.35;;;11.30;92.10;;;;;;5074870;28;20416;-75
2021/05/16 04:15:32;;;;;;;3.33;1.73;;;11.40;92.10;;;;;;5074174;28;20036;-75
2021/05/16 04:17:59;;;;;;;10.90;2.42;;;11.40;92.10;;;;;;5054306;28;20053;-75
2021/05/16 04:20:26;;;;;;;10.38;2.10;;;11.40;92.10;;;;;;5056504;28;20033;-75
2021/05/16 04:22:53;;;;;;;8.43;2.47;;;11.40;92.10;;;;;;5073036;28;20028;-75
2021/05/16 04:25:21;;;;;;;12.07;3.55;;;11.40;92.10;;;;;;5060884;28;20102;-75
2021/05/16 04:27:48;;;;;;;8.90;2.53;;;11.40;92.00;;;;;;5073799;28;20052;-75
2021/05/16 04:30:15;;;;;;;9.30;2.72;;;11.30;92.00;;;;;;5052736;28;20044;-75
2021/05/16 04:32:42;;;;;;;9.13;3.53;;;11.30;92.00;;;;;;5062481;28;20044;-75
2021/05/16 04:35:10;;;;;;;6.63;3.22;;;11.30;91.90;;;;;;5072568;28;20048;-75
2021/05/16 04:37:38;;;;;;;9.55;3.40;;;11.30;91.90;;;;;;5073750;28;20040;-75
2021/05/16 04:40:05;;;;;;;7.53;3.15;;;11.30;92.00;;;;;;5073555;28;20063;-75
2021/05/16 04:42:33;;;;;;;10.60;3.17;;;11.40;92.00;;;;;;5073129;28;20511;-75
2021/05/16 04:45:00;;;;;;;9.25;3.70;;;11.40;92.00;;;;;;5056246;28;20071;-75
2021/05/16 04:47:27;;;;;;;10.68;4.25;;;11.40;92.00;;;;;;5072511;28;20048;-75
2021/05/16 04:49:54;;;;;;;8.85;3.70;;;11.30;91.90;;;;;;5070212;28;20040;-75
2021/05/16 04:52:21;;;;;;;9.63;3.08;;;11.30;91.90;;;;;;5071751;28;20047;-75
2021/05/16 04:54:48;;;;;;;9.20;3.35;;;11.30;91.90;;;;;;5064745;28;20037;-75
2021/05/16 04:57:15;;;;;;;9.25;3.72;;;11.30;91.90;;;;;;5069139;28;20510;-75
2021/05/16 04:59:42;;;;;;;8.63;3.10;;;11.30;91.90;;;;;;5072768;28;20689;-75
2021/05/16 05:02:09;;;;;;;6.55;2.95;;;11.30;92.00;;;;;;5053648;28;20045;-74
2021/05/16 05:04:36;;;;;;;8.88;2.90;;;11.30;92.00;;;;;;5073206;28;20055;-74
2021/05/16 05:07:06;;;;;;;7.50;3.17;;;11.40;92.00;;;;;;5056128;28;20045;-74
2021/05/16 05:09:34;;;;;;;8.77;3.08;;;11.30;91.90;;;;;;5073949;28;20436;-75
2021/05/16 05:12:01;;;;;;;9.90;3.47;;;11.40;92.00;;;;;;5072494;28;20048;-75
2021/05/16 05:14:29;;;;;;;9.07;4.22;;;11.40;91.90;;;;;;5053551;28;20068;-75
2021/05/16 05:16:57;;;;;;;9.13;3.65;;;11.40;91.90;;;;;;5073981;28;20068;-74
2021/05/16 05:19:24;;;;;;;9.82;3.70;;;11.40;91.90;;;;;;5072966;28;20044;-74
2021/05/16 05:21:51;;;;;;;6.28;2.97;;;11.40;91.90;;;;;;5073560;28;20438;-74
2021/05/16 05:24:18;;;;;;;5.93;2.53;;;11.40;91.90;;;;;;5071980;28;20040;-74
2021/05/16 05:26:45;;;;;;;9.60;3.13;;;11.50;91.90;;;;;;5055544;28;20063;-75
2021/05/16 05:29:12;;;;;;;7.90;2.50;;;11.50;91.90;;;;;;5056745;28;20380;-75
2021/05/16 05:31:39;;;;;;;8.18;3.05;;;11.50;91.90;;;;;;5073158;28;20450;-75
2021/05/16 05:34:06;;;;;;;7.50;2.95;;;11.50;91.80;;;;;;5073185;28;20443;-75
2021/05/16 05:36:33;;;;;;;9.05;3.33;;;11.50;91.90;;;;;;5056796;28;20040;-75
2021/05/16 05:39:00;;;;;;;7.63;2.72;;;11.50;91.90;;;;;;5059047;28;20101;-75
2021/05/16 05:41:27;;;;;;;6.13;2.90;;;11.50;91.90;;;;;;5073431;28;20041;-75
2021/05/16 05:43:54;;;;;;;11.65;3.92;;;11.60;91.90;;;;;;5056620;28;20056;-75
2021/05/16 05:46:21;;;;;;;6.22;3.03;;;11.50;91.80;;;;;;5056645;28;20033;-75
2021/05/16 05:48:49;;;;;;;10.43;3.72;;;11.50;91.80;;;;;;5055230;28;20045;-75
2021/05/16 05:51:16;;;;;;;12.82;4.20;;;11.60;91.80;;;;;;5074114;28;20493;-75
2021/05/16 05:53:42;;;;;;;12.80;5.65;;;11.50;92.00;;;;;;5072603;28;20044;-75
2021/05/16 05:56:10;;;;;;;11.98;4.80;;;11.60;91.70;;;;;;5053827;28;20051;-75
2021/05/16 05:58:37;;;;;;;9.07;3.75;;;11.60;91.90;;;;;;5072501;28;20579;-75
2021/05/16 06:01:04;;;;;;;8.70;3.53;;;11.60;91.70;;;;;;5072140;28;20047;-76
2021/05/16 06:03:31;;;;;;;6.85;3.28;;;11.60;91.70;;;;;;5073671;28;20388;-75
2021/05/16 06:05:58;;;;;;;11.60;4.18;;;11.70;91.70;;;;;;5073362;28;20037;-75
2021/05/16 06:08:25;;;;;;;8.75;3.80;;;11.70;91.70;;;;;;5073554;28;20052;-75
2021/05/16 06:10:52;;;;;;;7.05;3.58;;;11.70;91.60;;;;;;5072275;28;20056;-77
2021/05/16 06:13:19;;;;;;;10.20;4.40;;;11.80;91.60;;;;;;5073336;28;20036;-76
2021/05/16 06:15:47;;;;;;;8.35;3.80;;;11.80;91.60;;;;;;5073614;28;20036;-75
2021/05/16 06:18:14;;;;;;;8.55;2.95;;;11.80;91.60;;;;;;5072940;28;20127;-76
2021/05/16 06:20:41;;;;;;;6.38;2.47;;;11.80;91.60;;;;;;5072430;28;20480;-76
2021/05/16 06:23:11;;;;;;;8.73;3.65;;;11.90;91.60;;;;;;5072431;28;20041;-76
2021/05/16 06:25:43;;;;;;;8.45;3.67;;;11.90;91.50;;;;;;5056092;28;20033;-76
2021/05/16 06:28:11;;;;;;;14.10;4.30;;;12.00;91.50;;;;;;5066218;28;20037;-76
2021/05/16 06:30:38;;;;;;;10.90;4.78;;;12.00;91.40;;;;;;5073076;28;20115;-75
2021/05/16 06:33:06;;;;;;;13.20;4.95;;;12.00;91.30;;;;;;5073071;28;20094;-76
2021/05/16 06:35:33;;;;;;;13.23;4.80;;;12.10;91.30;;;;;;5071264;28;20041;-75
2021/05/16 06:38:00;;;;;;;10.32;4.18;;;12.20;91.30;;;;;;5075661;28;20040;-76
2021/05/16 06:40:31;;;;;;;7.63;4.28;;;12.20;91.30;;;;;;5040840;28;20056;-76
2021/05/16 06:43:04;;;;;;;11.13;6.03;;;12.30;91.20;;;;;;5076029;28;20131;-76
2021/05/16 06:45:32;;;;;;;9.38;5.18;;;12.30;91.20;;;;;;5059293;28;20078;-76
2021/05/16 06:47:59;;;;;;;14.93;5.03;;;12.30;91.10;;;;;;5066114;28;20087;-76
2021/05/16 06:50:26;;;;;;;10.68;4.50;;;12.30;91.40;;;;;;5072805;28;20083;-76
2021/05/16 06:52:53;;;;;;;9.38;4.75;;;12.40;91.10;;;;;;5075800;28;20457;-76
2021/05/16 06:55:20;;;;;;;10.48;4.47;;;12.40;91.10;;;;;;5039008;28;20049;-76
2021/05/16 06:57:47;;;;;;;8.48;4.07;;;12.50;91.00;;;;;;5061492;28;20430;-76
2021/05/16 07:00:15;;;;;;;7.90;3.65;;;12.60;91.20;;;;;;5083033;28;20099;-77
2021/05/16 07:02:42;;;;;;;10.52;5.10;;;12.70;91.00;;;;;;5076497;28;20035;-76
2021/05/16 07:05:10;;;;;;;9.88;4.15;;;12.80;90.80;;;;;;5042220;28;20086;-76
2021/05/16 07:07:37;;;;;;;6.72;3.90;;;12.80;90.70;;;;;;5058808;28;20442;-76
2021/05/16 07:10:04;;;;;;;10.00;3.65;;;12.80;90.90;;;;;;5075728;28;20373;-76
2021/05/16 07:12:31;;;;;;;6.88;3.58;;;12.90;90.60;;;;;;5070109;28;20123;-76
2021/05/16 07:14:58;;;;;;;6.40;3.55;;;12.90;90.70;;;;;;5058423;28;20556;-76
2021/05/16 07:17:25;;;;;;;11.30;4.43;;;13.00;90.70;;;;;;5055394;28;20057;-76
2021/05/16 07:19:52;;;;;;;11.32;4.13;;;13.30;90.70;;;;;;5075579;28;20040;-76
2021/05/16 07:22:19;;;;;;;12.63;5.00;;;13.50;90.50;;;;;;5067677;28;20044;-76
2021/05/16 07:24:46;;;;;;;13.45;4.97;;;13.60;90.30;;;;;;5066537;28;20511;-76
2021/05/16 07:27:13;;;;;;;9.43;3.67;;;13.70;90.10;;;;;;5076612;28;20403;-76
2021/05/16 07:29:44;;;;;;;10.02;4.18;;;13.70;90.10;;;;;;5065399;28;20530;-76
2021/05/16 07:32:13;;;;;;;9.07;4.32;;;13.70;90.00;;;;;;5071513;28;20041;-77
2021/05/16 07:34:40;;;;;;;12.35;4.13;;;13.70;90.00;;;;;;5047493;28;20053;-77
2021/05/16 07:37:08;;;;;;;7.95;3.70;;;13.70;90.00;;;;;;5054535;28;20048;-76
2021/05/16 07:39:35;;;;;;;9.98;4.22;;;13.70;90.10;;;;;;5074608;28;20072;-77
2021/05/16 07:42:02;;;;;;;10.70;3.47;;;13.70;89.70;;;;;;5057681;28;20037;-76
2021/05/16 07:44:30;;;;;;;8.73;3.42;;;13.60;89.70;;;;;;5075561;28;20500;-75
2021/05/16 07:46:57;;;;;;;9.18;3.75;;;13.60;89.90;;;;;;5074036;28;20032;-76
2021/05/16 07:49:24;;;;;;;8.27;3.00;;;13.50;89.90;;;;;;5058368;28;20404;-76
2021/05/16 07:51:51;;;;;;;8.25;3.25;;;13.50;90.00;;;;;;5074464;28;20481;-76
2021/05/16 07:54:18;;;;;;;8.20;3.67;;;13.40;90.10;;;;;;5041379;28;20040;-75
2021/05/16 07:56:45;;;;;;;8.00;3.80;;;13.40;90.00;;;;;;5054250;28;20049;-76
2021/05/16 07:59:12;;;;;;;12.20;4.53;;;13.30;90.00;;;;;;5054149;28;20044;-75
2021/05/16 08:01:39;;;;;;;10.27;3.88;;;13.30;90.10;;;;;;5081552;28;20044;-75
2021/05/16 08:04:06;;;;;;;12.02;4.10;;;13.30;90.00;;;;;;5065552;28;20044;-75
2021/05/16 08:06:33;;;;;;;8.60;3.95;;;13.30;89.90;;;;;;5054156;28;20033;-75
2021/05/16 08:09:01;;;;;;;10.07;4.03;;;13.30;89.90;;;;;;5054357;28;20049;-74
2021/05/16 08:11:27;;;;;;;6.07;2.83;;;13.40;89.70;;;;;;5053256;28;20432;-74
2021/05/16 08:13:54;;;;;;;11.20;3.70;;;13.50;89.70;;;;;;5073491;28;20083;-75
2021/05/16 08:16:21;;;;;;;7.32;3.55;;;13.70;89.70;;;;;;5074304;28;20110;-75
2021/05/16 08:18:51;;;;;;;9.98;4.55;;;13.80;89.50;;;;;;5054579;28;20129;-75
2021/05/16 08:21:19;;;;;;;11.85;4.22;;;13.90;89.30;;;;;;5074037;28;20041;-75
2021/05/16 08:23:46;;;;;;;9.05;4.47;;;14.00;89.70;;;;;;5060476;28;20028;-75
2021/05/16 08:26:13;;;;;;;11.40;5.47;;;14.00;88.80;;;;;;5055437;28;20381;-74
2021/05/16 08:28:40;;;;;;;9.70;5.88;;;14.10;88.40;;;;;;5074302;28;20055;-75
2021/05/16 08:31:07;;;;;;;9.00;4.80;;;14.10;88.50;;;;;;5052933;28;20052;-76
2021/05/16 08:33:34;;;;;;;10.25;5.20;;;14.20;88.40;;;;;;5055679;28;20051;-76
2021/05/16 08:36:01;;;;;;;10.07;4.47;;;14.40;88.40;;;;;;5084226;28;20047;-75
2021/05/16 08:38:28;;;;;;;13.90;5.97;;;14.50;88.20;;;;;;5074501;28;20043;-75
2021/05/16 08:40:55;;;;;;;7.80;5.20;;;14.60;87.90;;;;;;5072677;28;20033;-75
2021/05/16 08:43:22;;;;;;;11.50;5.18;;;14.70;87.70;;;;;;5072152;28;20028;-75
2021/05/16 08:45:49;;;;;;;11.43;5.72;;;14.70;87.70;;;;;;5072011;28;20054;-75
2021/05/16 08:48:16;;;;;;;13.07;6.43;;;14.70;87.60;;;;;;5073096;28;20131;-75
2021/05/16 08:50:43;;;;;;;12.77;6.13;;;14.70;87.50;;;;;;5053126;28;20455;-75
2021/05/16 08:53:10;;;;;;;12.40;5.72;;;14.80;87.20;;;;;;5063183;28;20488;-75
2021/05/16 08:55:37;;;;;;;15.38;6.80;;;14.90;87.20;;;;;;5056542;28;20053;-74
2021/05/16 08:58:04;;;;;;;12.38;6.53;;;14.90;86.90;;;;;;5073867;28;20055;-74
2021/05/16 09:00:45;;;;;;;14.80;6.90;;;15.10;86.50;;;;;;5055749;28;20374;-74
2021/05/16 09:03:14;;;;;;;13.15;6.80;;;15.00;86.20;;;;;;5071696;28;20492;-74
2021/05/16 09:05:51;;;;;;;12.98;8.00;;;14.90;86.40;;;;;;5073118;28;20039;-74
2021/05/16 09:08:21;;;;;;;10.30;6.28;;;15.00;86.50;;;;;;5073133;28;20055;-73
2021/05/16 09:10:56;;;;;;;16.20;7.55;;;15.20;86.70;;;;;;5072341;28;20389;-74
2021/05/16 09:13:31;;;;;;;14.35;8.55;;;15.40;86.00;;;;;;5071650;28;20040;-73
2021/05/16 09:16:00;;;;;;;16.15;8.70;;;15.60;85.10;;;;;;5072126;28;20043;-74
2021/05/16 09:18:48;;;;;;;16.70;8.07;;;15.70;84.90;;;;;;5073411;28;20041;-75
2021/05/16 09:21:17;;;;;;;11.32;7.40;;;15.80;84.60;;;;;;5072374;28;20044;-75
2021/05/16 09:23:44;;;;;;;11.85;6.90;;;15.70;84.60;;;;;;5063702;28;20036;-74
2021/05/16 09:26:13;;;;;;;10.32;6.60;;;15.60;85.10;;;;;;5074974;28;20055;-74
2021/05/16 09:28:40;;;;;;;12.82;6.88;;;15.70;85.50;;;;;;5035043;28;20041;-74
2021/05/16 09:31:08;;;;;;;11.20;6.97;;;15.90;85.10;;;;;;5071351;28;20063;-73
2021/05/16 09:33:35;;;;;;;10.68;6.63;;;16.00;84.60;;;;;;5072191;28;20040;-73
2021/05/16 09:36:08;;;;;;;11.27;6.55;;;16.30;84.10;;;;;;5072835;28;20033;-72
2021/05/16 09:38:35;;;;;;;14.77;6.45;;;16.40;83.30;;;;;;5055270;28;20053;-73
2021/05/16 09:41:04;;;;;;;13.02;6.15;;;16.40;83.40;;;;;;5070274;28;20033;-73
2021/05/16 09:43:32;;;;;;;10.98;6.53;;;16.40;83.40;;;;;;5054222;28;20072;-74
2021/05/16 09:46:07;;;;;;;12.75;6.10;;;16.40;83.10;;;;;;5070605;28;20496;-74
2021/05/16 09:48:42;;;;;;;12.45;6.97;;;16.30;82.50;;;;;;5071955;28;20036;-75
2021/05/16 09:51:19;;;;;;;12.27;6.72;;;16.20;82.40;;;;;;5071179;28;20464;-73
2021/05/16 09:54:08;;;;;;;14.90;6.63;;;16.20;81.10;;;;;;5070456;28;20093;-73
2021/05/16 09:56:40;;;;;;;10.20;5.90;;;16.30;81.30;;;;;;5070471;28;20044;-73
2021/05/16 09:59:09;;;;;;;9.70;5.80;;;16.50;81.70;;;;;;5071958;28;20040;-73
2021/05/16 10:01:39;;;;;;;10.18;5.40;;;16.70;81.30;;;;;;5071254;28;20114;-74
2021/05/16 10:04:07;;;;;;;9.15;5.30;;;16.80;81.20;;;;;;5069035;28;20037;-74
2021/05/16 10:06:35;;;;;;;8.63;4.93;;;17.10;80.60;;;;;;5070459;28;20040;-74
2021/05/16 10:09:04;;;;;;;9.82;5.13;;;17.30;80.30;;;;;;5086396;28;20121;-74
2021/05/16 10:11:31;;;;;;;10.85;4.88;;;17.40;79.60;;;;;;5052771;28;20045;-74
2021/05/16 10:14:15;;;;;;;11.45;4.47;;;17.60;78.50;;;;;;5070531;28;20056;-74
2021/05/16 10:16:49;;;;;;;8.80;3.97;;;17.70;78.50;;;;;;5067099;28;20052;-75
2021/05/16 10:19:19;;;;;;;9.20;3.80;;;18.00;78.40;;;;;;5071447;28;20518;-73
2021/05/16 10:22:04;;;;;;;9.70;3.60;;;18.00;77.60;;;;;;5068929;28;20037;-73
2021/05/16 10:24:46;;;;;;;5.70;3.28;;;18.10;76.90;;;;;;5070244;28;20115;-73
2021/05/16 10:27:25;;;;;;;7.85;3.10;;;17.90;76.90;;;;;;5063717;28;20048;-73
2021/05/16 10:29:55;;;;;;;6.32;2.97;;;17.80;77.10;;;;;;5070883;28;20048;-73
2021/05/16 10:32:24;;;;;;;7.20;3.10;;;17.80;77.70;;;;;;5068404;28;20036;-74
2021/05/16 10:34:55;;;;;;;7.32;4.03;;;17.80;77.20;;;;;;5071524;28;20039;-74
2021/05/16 10:37:39;;;;;;;7.32;3.58;;;17.70;77.20;;;;;;5063174;28;20045;-74
2021/05/16 10:40:12;;;;;;;6.88;2.42;;;17.60;77.10;;;;;;5064420;28;20040;-73
2021/05/16 10:42:40;;;;;;;5.25;2.10;;;17.50;77.60;;;;;;5069637;28;20054;-73
2021/05/16 10:45:16;;;;;;;6.60;2.45;;;17.40;77.60;;;;;;5053473;28;20071;-74
2021/05/16 10:50:25;;;;;;;7.63;2.17;;;17.50;78.00;;;;;;5071472;28;20041;-74
2021/05/16 10:53:05;;;;;;;4.07;2.00;;;17.50;76.80;;;;;;5069254;28;20067;-72
2021/05/16 10:55:40;;;;;;;9.68;2.20;;;17.50;76.90;;;;;;5071113;28;20044;-73
2021/05/16 10:58:32;;;;;;;5.90;1.90;;;17.50;77.10;;;;;;5072203;28;20555;-75
2021/05/16 11:01:05;;;;;;;5.90;1.48;;;17.70;76.90;;;;;;5070478;28;20137;-76
2021/05/16 11:03:56;;;;;;;8.15;2.22;;;18.00;76.90;;;;;;5071176;28;20037;-76
2021/05/16 11:06:43;;;;;;;5.05;2.08;;;18.00;74.70;;;;;;5072384;28;20037;-77
2021/05/16 11:09:13;;;;;;;8.85;2.13;;;17.80;75.30;;;;;;5043874;28;20481;-77
2021/05/16 11:11:54;;;;;;;5.88;1.92;;;17.60;75.80;;;;;;5054629;28;20044;-75
2021/05/16 11:14:31;;;;;;;6.18;1.80;;;17.30;76.60;;;;;;5070678;28;20440;-74
2021/05/16 11:17:02;;;;;;;7.35;1.95;;;17.10;77.10;;;;;;5063920;28;20061;-75
2021/05/16 11:19:34;;;;;;;12.88;3.05;;;17.20;77.60;;;;;;5072229;28;20693;-76
2021/05/16 11:22:11;;;;;;;8.07;2.78;;;17.50;75.10;;;;;;5069664;28;20044;-76
2021/05/16 11:24:42;;;;;;;8.73;3.00;;;17.80;75.30;;;;;;5074558;28;20040;-76
2021/05/16 11:27:24;;;;;;;7.13;2.70;;;17.80;75.20;;;;;;5061195;28;20073;-73
2021/05/16 11:30:06;;;;;;;7.22;2.70;;;17.70;74.40;;;;;;5076232;28;20042;-74
2021/05/16 11:32:34;;;;;;;;;;;17.70;74.90;;;;;;5074063;28;20087;-73
2021/05/16 11:35:06;;;;;;;8.80;3.13;;;17.80;75.20;;;;;;5074032;28;20348;-73
2021/05/16 11:37:34;;;;;;;8.52;2.72;;;18.20;74.40;;;;;;5070839;28;20534;-73
2021/05/16 11:40:16;;;;;;;6.80;2.17;;;18.40;74.30;;;;;;5068658;28;20033;-73
2021/05/16 11:42:45;;;;;;;6.50;2.28;;;18.40;73.80;;;;;;5062283;28;20131;-73
2021/05/16 11:45:14;;;;;;;5.13;1.95;;;18.30;73.80;;;;;;5061157;28;20033;-72
2021/05/16 11:47:44;;;;;;;9.43;2.90;;;18.10;74.00;;;;;;5066248;28;20055;-74
2021/05/16 11:50:12;;;;;;;6.95;2.90;;;17.80;74.00;;;;;;5068487;28;20488;-74
2021/05/16 11:52:40;;;;;;;5.70;2.70;;;17.50;73.40;;;;;;5068589;28;20040;-73
2021/05/16 11:55:11;;;;;;;8.05;2.55;;;17.10;72.20;;;;;;5059751;28;20048;-74
2021/05/16 11:57:43;;;;;;;4.18;1.60;;;16.70;72.20;;;;;;5065128;28;20400;-71
2021/05/16 12:00:13;;;;;;;5.00;1.45;;;16.30;72.50;;;;;;5061694;28;20043;-73
2021/05/16 12:02:41;;;;;;;10.48;2.00;;;16.00;72.00;;;;;;5064778;28;20103;-74
2021/05/16 12:05:08;;;;;;;4.22;1.50;;;15.70;73.70;;;;;;5062835;28;20037;-74
2021/05/16 12:07:35;;;;;;;3.53;1.60;;;15.50;74.60;;;;;;5063074;28;20045;-74
2021/05/16 12:10:04;;;;;;;4.78;1.08;;;15.30;75.90;;;;;;5064337;28;20048;-74
2021/05/16 12:12:31;;;;;;;2.72;0.77;;;15.30;76.80;;;;;;5061541;28;20044;-74
2021/05/16 12:14:58;;;;;;;2.42;0.80;;;15.40;77.10;;;;;;5067560;28;20055;-75
2021/05/16 12:17:35;;;;;;;2.50;0.60;;;15.60;77.30;;;;;;5046848;28;20523;-73
2021/05/16 12:20:04;;;;;;;2.10;0.50;;;15.80;77.20;;;;;;5070808;28;20040;-74
2021/05/16 12:22:36;;;;;;;1.05;0.70;;;16.20;77.00;;;;;;5073417;28;20041;-74
2021/05/16 12:25:05;;;;;;;1.65;0.70;;;16.30;76.70;;;;;;5072196;28;20033;-74
2021/05/16 12:27:32;;;;;;;3.22;0.70;;;16.50;77.00;;;;;;5073179;28;20044;-73
2021/05/16 12:30:03;;;;;;;2.67;0.88;;;16.90;76.10;;;;;;5073106;28;20050;-74
2021/05/16 12:32:31;;;;;;;2.47;0.80;;;17.50;75.00;;;;;;5073201;28;20036;-74
2021/05/16 12:34:58;;;;;;;2.75;0.60;;;18.10;74.10;;;;;;5059155;28;20122;-73
2021/05/16 12:37:28;;;;;;;1.77;0.43;;;18.80;72.90;;;;;;5073047;28;20044;-75
2021/05/16 12:39:58;;;;;;;3.67;0.63;;;19.50;71.90;;;;;;5072775;28;20139;-74
2021/05/16 12:42:32;;;;;;;3.15;0.50;;;20.00;71.10;;;;;;5073054;28;20075;-74
2021/05/16 12:45:25;;;;;;;2.50;0.93;;;19.90;70.40;;;;;;5072858;28;20043;-74
2021/05/16 12:48:11;;;;;;;2.17;0.60;;;19.40;71.20;;;;;;5072953;28;20049;-74
2021/05/16 12:50:50;;;;;;;3.10;1.00;;;19.10;72.20;;;;;;5073746;28;20128;-74
2021/05/16 12:53:25;;;;;;;4.13;1.00;;;19.60;72.30;;;;;;5074236;28;20041;-75
2021/05/16 12:55:56;;;;;;;3.25;0.60;;;20.40;70.20;;;;;;5072477;28;20055;-74
2021/05/16 13:00:58;;;;;;;4.47;0.80;;;21.50;68.10;;;;;;5072672;28;20066;-72